Time;durP1;ratioP1;P1;durP2;ratioP2;P2;SDS_P1;SDS_P2;PMS_P1;PMS_P2;Temp;Humidity;BMP_temperature;BMP_pressure;BME280_temperature;BME280_humidity;BME280_pressure;Samples;Min_cycle;Max_cycle;Signal;HPM_P1;HPM_P2
2024/04/05 00:00:13;;;;;;;21.42;11.25;;;;;;;;;;4352074;32;319132;-80
2024/04/05 00:02:42;;;;;;;23.55;12.27;;;;;;;;;;4356242;32;319352;-80
2024/04/05 00:05:12;;;;;;;21.55;11.48;;;;;;;;;;4338373;32;319327;-80
2024/04/05 00:07:40;;;;;;;21.23;10.68;;;;;;;;;;4354531;32;319301;-80
2024/04/05 00:10:07;;;;;;;21.40;10.90;;;;;;;;;;4343739;32;319427;-80
2024/04/05 00:12:33;;;;;;;23.52;12.00;;;;;;;;;;4327886;32;319463;-80
2024/04/05 00:15:00;;;;;;;19.23;11.80;;;;;;;;;;4311216;33;319251;-80
2024/04/05 00:17:26;;;;;;;19.10;10.88;;;;;;;;;;4315951;33;318588;-80
2024/04/05 00:19:53;;;;;;;22.17;9.75;;;;;;;;;;4311698;33;319023;-80
2024/04/05 00:22:20;;;;;;;21.05;10.85;;;;;;;;;;4320955;33;318396;-80
2024/04/05 00:24:46;;;;;;;15.48;9.20;;;;;;;;;;4322136;33;319344;-80
2024/04/05 00:27:13;;;;;;;16.77;8.32;;;;;;;;;;4319439;32;317450;-80
2024/04/05 00:29:39;;;;;;;21.75;8.30;;;;;;;;;;4346409;32;318283;-81
2024/04/05 00:32:06;;;;;;;12.95;7.47;;;;;;;;;;4339615;32;318488;-80
2024/04/05 00:34:32;;;;;;;16.42;8.10;;;;;;;;;;4351654;32;318029;-80
2024/04/05 00:37:00;;;;;;;16.85;9.10;;;;;;;;;;4342286;32;318045;-80
2024/04/05 00:39:25;;;;;;;17.02;9.00;;;;;;;;;;4343501;32;318867;-79
2024/04/05 00:41:53;;;;;;;18.80;9.00;;;;;;;;;;4347048;32;318406;-80
2024/04/05 00:44:18;;;;;;;20.93;8.87;;;;;;;;;;4338711;32;318313;-80
2024/04/05 00:46:45;;;;;;;13.97;8.17;;;;;;;;;;4351724;32;318460;-80
2024/04/05 00:49:11;;;;;;;15.35;8.30;;;;;;;;;;4336068;32;358081;-80
2024/04/05 00:51:39;;;;;;;16.93;8.97;;;;;;;;;;4353843;32;330059;-80
2024/04/05 00:54:07;;;;;;;13.03;7.20;;;;;;;;;;4355345;32;318354;-79
2024/04/05 00:56:34;;;;;;;15.93;8.77;;;;;;;;;;4368029;32;318031;-80
2024/04/05 00:59:00;;;;;;;17.93;9.37;;;;;;;;;;4355075;32;317242;-80
2024/04/05 01:01:27;;;;;;;16.25;9.77;;;;;;;;;;4361587;32;318116;-80
2024/04/05 01:03:53;;;;;;;19.67;10.23;;;;;;;;;;4344604;32;323739;-79
2024/04/05 01:06:19;;;;;;;16.73;9.25;;;;;;;;;;4351353;32;319456;-79
2024/04/05 01:08:45;;;;;;;17.60;9.30;;;;;;;;;;4331437;32;318249;-79
2024/04/05 01:11:13;;;;;;;22.00;9.37;;;;;;;;;;4306559;32;318098;-80
2024/04/05 01:13:39;;;;;;;20.60;10.47;;;;;;;;;;4320968;32;318169;-80
2024/04/05 01:16:06;;;;;;;24.50;10.30;;;;;;;;;;4310923;32;319382;-80
2024/04/05 01:18:32;;;;;;;25.30;9.77;;;;;;;;;;4322713;32;318788;-80
2024/04/05 01:21:00;;;;;;;17.65;11.70;;;;;;;;;;4312925;32;318569;-81
2024/04/05 01:23:28;;;;;;;25.15;15.35;;;;;;;;;;4314666;32;319078;-80
2024/04/05 01:25:57;;;;;;;17.65;11.93;;;;;;;;;;4311365;32;319409;-81
2024/04/05 01:28:22;;;;;;;13.15;8.68;;;;;;;;;;4321585;32;319237;-80
2024/04/05 01:30:49;;;;;;;15.02;8.73;;;;;;;;;;4334760;32;318415;-80
2024/04/05 01:33:16;;;;;;;15.77;8.17;;;;;;;;;;4319292;32;318480;-80
2024/04/05 01:35:43;;;;;;;14.40;8.00;;;;;;;;;;4335410;32;344740;-79
2024/04/05 01:38:09;;;;;;;15.93;7.47;;;;;;;;;;4334173;32;318301;-81
2024/04/05 01:40:35;;;;;;;10.73;6.70;;;;;;;;;;4351375;32;318176;-80
2024/04/05 01:43:02;;;;;;;10.80;5.83;;;;;;;;;;4340239;32;318563;-80
2024/04/05 01:45:29;;;;;;;17.75;7.62;;;;;;;;;;4345560;32;318153;-80
2024/04/05 01:47:55;;;;;;;13.82;7.10;;;;;;;;;;4339463;32;386817;-80
2024/04/05 01:50:22;;;;;;;14.87;8.03;;;;;;;;;;4350924;32;318282;-80
2024/04/05 01:52:47;;;;;;;21.63;8.20;;;;;;;;;;4349382;32;318322;-80
2024/04/05 01:55:14;;;;;;;16.77;7.73;;;;;;;;;;4334515;32;318441;-80
2024/04/05 01:57:40;;;;;;;10.10;6.53;;;;;;;;;;4350313;32;318228;-80
2024/04/05 02:00:09;;;;;;;10.40;6.10;;;;;;;;;;4340652;32;325689;-80
2024/04/05 02:02:35;;;;;;;19.17;14.60;;;;;;;;;;4350541;32;318259;-79
2024/04/05 02:05:01;;;;;;;23.17;19.17;;;;;;;;;;4341040;32;319499;-80
2024/04/05 02:07:27;;;;;;;23.77;21.10;;;;;;;;;;4343257;32;318634;-81
2024/04/05 02:09:54;;;;;;;24.23;19.97;;;;;;;;;;4338460;32;334453;-79
2024/04/05 02:12:22;;;;;;;17.00;12.17;;;;;;;;;;4351175;32;319015;-79
2024/04/05 02:14:49;;;;;;;20.23;9.07;;;;;;;;;;4349281;32;319528;-80
2024/04/05 02:17:16;;;;;;;12.73;8.53;;;;;;;;;;4336066;32;353393;-79
2024/04/05 02:19:45;;;;;;;17.45;8.55;;;;;;;;;;4358896;32;318295;-79
2024/04/05 02:22:10;;;;;;;12.20;7.30;;;;;;;;;;4358710;32;317824;-79
2024/04/05 02:24:37;;;;;;;14.70;7.37;;;;;;;;;;4368404;32;316253;-78
2024/04/05 02:27:04;;;;;;;10.47;6.10;;;;;;;;;;4358466;32;344484;-79
2024/04/05 02:29:31;;;;;;;13.83;6.43;;;;;;;;;;4363998;32;316411;-80
2024/04/05 02:31:57;;;;;;;11.93;6.80;;;;;;;;;;4353673;32;318029;-81
2024/04/05 02:34:25;;;;;;;14.70;8.00;;;;;;;;;;4351012;32;318201;-80
2024/04/05 02:36:51;;;;;;;14.00;7.97;;;;;;;;;;4345768;32;318352;-81
2024/04/05 02:39:18;;;;;;;16.63;7.93;;;;;;;;;;4313572;32;372936;-80
2024/04/05 02:41:44;;;;;;;29.30;10.83;;;;;;;;;;4319988;32;342917;-81
2024/04/05 02:44:11;;;;;;;20.03;11.33;;;;;;;;;;4308992;32;319476;-79
2024/04/05 02:46:37;;;;;;;21.07;10.83;;;;;;;;;;4320635;32;319992;-80
2024/04/05 02:49:04;;;;;;;22.10;10.23;;;;;;;;;;4310550;32;319454;-81
2024/04/05 02:51:31;;;;;;;24.50;10.80;;;;;;;;;;4316266;32;318557;-81
2024/04/05 02:53:57;;;;;;;25.07;9.30;;;;;;;;;;4323177;32;319244;-80
2024/04/05 02:56:23;;;;;;;16.57;9.00;;;;;;;;;;4333674;32;318475;-79
2024/04/05 02:58:50;;;;;;;13.80;7.00;;;;;;;;;;4334262;32;318265;-80
2024/04/05 03:01:15;;;;;;;15.20;6.57;;;;;;;;;;4319100;32;318230;-81
2024/04/05 03:03:42;;;;;;;12.03;6.47;;;;;;;;;;4335216;32;318283;-80
2024/04/05 03:06:08;;;;;;;13.30;6.70;;;;;;;;;;4323704;32;318799;-80
2024/04/05 03:08:36;;;;;;;12.40;5.87;;;;;;;;;;4333958;32;318648;-80
2024/04/05 03:11:02;;;;;;;15.07;5.93;;;;;;;;;;4323534;32;331187;-80
2024/04/05 03:13:29;;;;;;;15.83;6.17;;;;;;;;;;4327994;32;318189;-80
2024/04/05 03:15:55;;;;;;;9.37;4.93;;;;;;;;;;4324821;32;318409;-80
2024/04/05 03:18:22;;;;;;;15.67;6.63;;;;;;;;;;4335345;32;317213;-80
2024/04/05 03:20:47;;;;;;;12.07;6.07;;;;;;;;;;4333413;32;318456;-80
2024/04/05 03:23:14;;;;;;;11.13;6.60;;;;;;;;;;4317226;32;318259;-80
2024/04/05 03:25:41;;;;;;;18.27;7.27;;;;;;;;;;4333717;32;318353;-80
2024/04/05 03:28:08;;;;;;;11.00;6.77;;;;;;;;;;4324829;32;318280;-80
2024/04/05 05:52:58;;;;;;;40.73;12.53;;;;;;;;;;5211087;27;315706;-79
2024/04/05 05:55:24;;;;;;;35.80;11.60;;;;;;;;;;5208358;27;318571;-80
2024/04/05 05:57:53;;;;;;;27.67;12.33;;;;;;;;;;5167110;27;320126;-80
2024/04/05 06:00:18;;;;;;;33.53;10.23;;;;;;;;;;5185448;27;318926;-80
2024/04/05 06:02:45;;;;;;;31.10;11.60;;;;;;;;;;5175223;27;319398;-79
2024/04/05 06:05:11;;;;;;;22.97;11.73;;;;;;;;;;5185488;27;319381;-79
2024/04/05 06:20:39;;;;;;;27.97;13.70;;;;;;;;;;4425800;32;20264;-80
2024/04/05 06:23:04;;;;;;;28.63;12.23;;;;;;;;;;4396126;32;317865;-81
2024/04/05 06:25:33;;;;;;;25.37;13.17;;;;;;;;;;4380236;32;319364;-80
2024/04/05 06:27:59;;;;;;;23.40;12.47;;;;;;;;;;4383093;32;319044;-80
2024/04/05 06:30:27;;;;;;;28.80;11.90;;;;;;;;;;4376505;32;359007;-81
2024/04/05 06:32:52;;;;;;;30.00;11.70;;;;;;;;;;4383370;32;319217;-80
2024/04/05 06:35:19;;;;;;;28.87;12.43;;;;;;;;;;4375349;32;319526;-80
2024/04/05 06:37:47;;;;;;;15.03;9.53;;;;;;;;;;4358933;32;319442;-81
2024/04/05 06:40:14;;;;;;;18.23;8.57;;;;;;;;;;4376500;32;317468;-80
2024/04/05 06:42:42;;;;;;;22.93;9.67;;;;;;;;;;4367621;32;318462;-81
2024/04/05 06:45:08;;;;;;;21.30;9.57;;;;;;;;;;4375405;32;317524;-80
2024/04/05 06:47:36;;;;;;;25.73;11.87;;;;;;;;;;4366673;32;318212;-81
2024/04/05 06:50:04;;;;;;;31.80;14.43;;;;;;;;;;4385315;32;319669;-80
2024/04/05 06:52:33;;;;;;;21.97;12.53;;;;;;;;;;4381420;32;319087;-80
2024/04/05 06:55:03;;;;;;;18.47;10.37;;;;;;;;;;4395136;32;319394;-80
2024/04/05 06:57:29;;;;;;;24.80;10.47;;;;;;;;;;4382743;32;318416;-81
2024/04/05 06:59:55;;;;;;;23.90;10.30;;;;;;;;;;4384000;32;318584;-81
2024/04/05 07:02:22;;;;;;;16.37;10.37;;;;;;;;;;4389468;32;319282;-81
2024/04/05 07:17:48;;;;;;;20.92;7.12;;;;;;;;;;4447441;32;20276;-78
2024/04/05 07:20:15;;;;;;;13.00;6.37;;;;;;;;;;4418549;32;317192;-78
2024/04/05 07:22:41;;;;;;;13.30;7.12;;;;;;;;;;4394093;32;318535;-79
2024/04/05 07:25:08;;;;;;;12.48;7.35;;;;;;;;;;4417078;32;345047;-78
2024/04/05 07:27:34;;;;;;;14.55;6.35;;;;;;;;;;4410549;32;318319;-78
2024/04/05 07:30:00;;;;;;;27.67;7.78;;;;;;;;;;4421185;32;318407;-77
2024/04/05 07:32:27;;;;;;;15.93;6.87;;;;;;;;;;4411243;32;318293;-78
2024/04/05 07:34:55;;;;;;;16.12;6.18;;;;;;;;;;4413315;32;318359;-78
2024/04/05 07:37:21;;;;;;;16.55;6.30;;;;;;;;;;4415207;32;318163;-78
2024/04/05 07:39:51;;;;;;;9.27;4.87;;;;;;;;;;4405949;32;318498;-77
2024/04/05 07:42:19;;;;;;;14.07;6.22;;;;;;;;;;4420398;32;317210;-77
2024/04/05 07:44:46;;;;;;;18.25;6.82;;;;;;;;;;4404404;32;318274;-77
2024/04/05 07:47:12;;;;;;;10.10;6.20;;;;;;;;;;4420620;32;318447;-78
2024/04/05 07:49:39;;;;;;;22.52;5.65;;;;;;;;;;4411006;32;318505;-77
2024/04/05 07:52:06;;;;;;;10.35;5.43;;;;;;;;;;4419080;32;318190;-77
2024/04/05 07:54:34;;;;;;;10.43;5.60;;;;;;;;;;4409456;32;317644;-77
2024/04/05 07:57:00;;;;;;;13.75;5.35;;;;;;;;;;4412027;32;317576;-76
2024/04/05 07:59:27;;;;;;;9.55;5.12;;;;;;;;;;4419594;32;318505;-77
2024/04/05 08:01:52;;;;;;;10.35;5.57;;;;;;;;;;4406287;32;416650;-76
2024/04/05 08:04:19;;;;;;;8.68;5.20;;;;;;;;;;4419994;32;317742;-73
2024/04/05 08:06:45;;;;;;;11.27;5.72;;;;;;;;;;4403202;32;317327;-75
2024/04/05 08:09:13;;;;;;;11.15;5.10;;;;;;;;;;4420607;32;318347;-74
2024/04/05 08:11:39;;;;;;;12.70;5.65;;;;;;;;;;4409675;32;318350;-74
2024/04/05 08:14:07;;;;;;;12.20;4.30;;;;;;;;;;4418041;32;318297;-75
2024/04/05 08:16:33;;;;;;;13.73;6.07;;;;;;;;;;4406701;32;318125;-75
2024/04/05 08:19:00;;;;;;;18.20;5.95;;;;;;;;;;4402508;32;318444;-76
2024/04/05 08:21:25;;;;;;;9.70;5.30;;;;;;;;;;4410214;32;318206;-75
2024/04/05 08:23:52;;;;;;;13.82;4.95;;;;;;;;;;4397905;32;374173;-75
2024/04/05 08:26:19;;;;;;;8.85;4.65;;;;;;;;;;4409858;32;318370;-75
2024/04/05 08:28:46;;;;;;;18.27;4.97;;;;;;;;;;4393474;32;317195;-75
2024/04/05 08:31:11;;;;;;;13.60;5.55;;;;;;;;;;4409968;32;318271;-75
2024/04/05 08:33:38;;;;;;;9.45;5.57;;;;;;;;;;4395433;32;318264;-75
2024/04/05 08:36:04;;;;;;;20.42;5.62;;;;;;;;;;4395017;32;317368;-75
2024/04/05 08:38:32;;;;;;;30.60;5.87;;;;;;;;;;4383635;32;348853;-75
2024/04/05 08:40:58;;;;;;;12.18;5.03;;;;;;;;;;4388599;32;318222;-75
2024/04/05 08:43:28;;;;;;;8.85;5.10;;;;;;;;;;4405391;32;318303;-73
2024/04/05 08:45:54;;;;;;;10.48;4.93;;;;;;;;;;4395148;32;418128;-74
2024/04/05 08:48:22;;;;;;;12.85;5.18;;;;;;;;;;4409153;32;317880;-74
2024/04/05 08:50:48;;;;;;;14.68;5.05;;;;;;;;;;4391037;32;358618;-74
2024/04/05 08:53:15;;;;;;;38.38;6.00;;;;;;;;;;4407109;32;318351;-73
2024/04/05 08:55:42;;;;;;;9.23;4.80;;;;;;;;;;4399841;32;318202;-73
2024/04/05 08:58:09;;;;;;;8.68;4.20;;;;;;;;;;4410055;32;317110;-73
2024/04/05 09:00:39;;;;;;;16.33;4.55;;;;;;;;;;4398377;32;317086;-74
2024/04/05 09:03:06;;;;;;;8.45;4.40;;;;;;;;;;4410238;32;318229;-74
2024/04/05 09:05:32;;;;;;;11.40;4.43;;;;;;;;;;4400780;32;317306;-74
2024/04/05 09:08:06;;;;;;;7.70;3.90;;;;;;;;;;4408721;32;319147;-74
2024/04/05 09:10:32;;;;;;;8.60;4.87;;;;;;;;;;4399280;32;317430;-73
2024/04/05 09:13:00;;;;;;;7.75;4.57;;;;;;;;;;4402611;32;317210;-74
2024/04/05 09:15:26;;;;;;;9.88;4.45;;;;;;;;;;4403983;32;317181;-74
2024/04/05 09:17:54;;;;;;;7.60;3.87;;;;;;;;;;4396741;32;417950;-72
2024/04/05 09:20:24;;;;;;;8.80;3.87;;;;;;;;;;4409630;32;317239;-74
2024/04/05 09:22:52;;;;;;;7.25;4.05;;;;;;;;;;4391349;32;317453;-72
2024/04/05 09:25:17;;;;;;;10.48;3.47;;;;;;;;;;4406698;32;317338;-74
2024/04/05 09:27:44;;;;;;;10.38;3.67;;;;;;;;;;4398154;32;318273;-73
2024/04/05 09:30:10;;;;;;;7.18;3.03;;;;;;;;;;4408434;32;318193;-73
2024/04/05 09:32:37;;;;;;;10.25;3.62;;;;;;;;;;4399175;32;317999;-73
2024/04/05 09:35:08;;;;;;;6.50;3.25;;;;;;;;;;4405919;32;318183;-73
2024/04/05 09:37:35;;;;;;;6.53;3.25;;;;;;;;;;4397986;32;317225;-73
2024/04/05 09:40:04;;;;;;;9.75;2.33;;;;;;;;;;4409121;32;316637;-73
2024/04/05 09:42:32;;;;;;;6.05;2.28;;;;;;;;;;4398005;32;317256;-73
2024/04/05 09:44:59;;;;;;;6.15;2.80;;;;;;;;;;4402247;32;316800;-73
2024/04/05 09:47:28;;;;;;;5.70;2.60;;;;;;;;;;4407678;32;324052;-74
2024/04/05 09:49:54;;;;;;;6.12;2.50;;;;;;;;;;4395235;32;417952;-74
2024/04/05 09:52:27;;;;;;;5.28;2.28;;;;;;;;;;4409030;32;317114;-73
2024/04/05 09:54:56;;;;;;;6.85;2.17;;;;;;;;;;4388975;32;417786;-73
2024/04/05 09:57:23;;;;;;;6.37;1.95;;;;;;;;;;4408038;32;317172;-73
2024/04/05 09:59:52;;;;;;;4.87;2.45;;;;;;;;;;4398796;32;317429;-75
2024/04/05 10:02:20;;;;;;;3.55;1.73;;;;;;;;;;4408254;32;317307;-73
2024/04/05 10:04:46;;;;;;;2.75;1.42;;;;;;;;;;4392313;32;318079;-73
2024/04/05 10:07:14;;;;;;;8.45;5.53;;;;;;;;;;4408583;32;317186;-75
2024/04/05 10:09:41;;;;;;;4.47;2.00;;;;;;;;;;4397557;32;317404;-75
2024/04/05 10:12:12;;;;;;;5.05;2.03;;;;;;;;;;4408627;32;317237;-75
2024/04/05 10:14:38;;;;;;;6.47;2.12;;;;;;;;;;4393957;32;317251;-76
2024/04/05 10:17:09;;;;;;;3.40;1.33;;;;;;;;;;4408191;32;317315;-76
2024/04/05 10:19:36;;;;;;;3.92;1.90;;;;;;;;;;4398457;32;317244;-76
2024/04/05 10:22:07;;;;;;;7.10;1.60;;;;;;;;;;4408265;32;317207;-76
2024/04/05 10:24:33;;;;;;;2.50;1.23;;;;;;;;;;4399196;32;317029;-75
2024/04/05 10:27:01;;;;;;;2.70;1.17;;;;;;;;;;4402117;32;317309;-75
2024/04/05 10:29:27;;;;;;;5.12;2.22;;;;;;;;;;4396733;32;372165;-77
2024/04/05 10:32:01;;;;;;;3.05;1.42;;;;;;;;;;4399845;32;317129;-75
2024/04/05 10:34:27;;;;;;;2.45;1.30;;;;;;;;;;4383696;32;317176;-75
2024/04/05 10:36:58;;;;;;;5.57;1.52;;;;;;;;;;4389629;32;316696;-77
2024/04/05 10:39:24;;;;;;;7.00;1.42;;;;;;;;;;4403684;32;317010;-76
2024/04/05 10:41:51;;;;;;;4.82;1.48;;;;;;;;;;4394700;32;315786;-76
2024/04/05 10:44:18;;;;;;;4.62;1.62;;;;;;;;;;4407099;32;316779;-76
2024/04/05 10:46:48;;;;;;;2.87;1.60;;;;;;;;;;4391567;32;317276;-76
2024/04/05 10:49:14;;;;;;;2.90;1.35;;;;;;;;;;4407263;32;317158;-76
2024/04/05 10:51:42;;;;;;;1.98;1.33;;;;;;;;;;4397161;32;317053;-76
2024/04/05 10:54:08;;;;;;;7.43;1.70;;;;;;;;;;4408518;32;317212;-76
2024/04/05 10:56:40;;;;;;;3.95;1.58;;;;;;;;;;4398406;32;317450;-76
2024/04/05 10:59:07;;;;;;;9.50;2.05;;;;;;;;;;4407187;32;317370;-75
2024/04/05 11:01:36;;;;;;;4.95;1.50;;;;;;;;;;4397214;32;317735;-75
2024/04/05 11:04:03;;;;;;;6.25;2.30;;;;;;;;;;4408277;32;317393;-75
2024/04/05 11:06:30;;;;;;;7.18;1.67;;;;;;;;;;4396926;32;317218;-75
2024/04/05 11:08:56;;;;;;;3.35;1.67;;;;;;;;;;4402050;32;317242;-76
2024/04/05 11:11:23;;;;;;;7.55;2.55;;;;;;;;;;4408203;32;317287;-76
2024/04/05 11:13:49;;;;;;;4.05;1.58;;;;;;;;;;4397642;32;317190;-77
2024/04/05 11:16:16;;;;;;;8.02;3.12;;;;;;;;;;4407402;32;317283;-75
2024/04/05 11:18:45;;;;;;;6.32;1.48;;;;;;;;;;4391653;32;317275;-76
2024/04/05 11:21:16;;;;;;;3.92;1.80;;;;;;;;;;4407091;32;317307;-75
2024/04/05 11:23:53;;;;;;;6.28;1.45;;;;;;;;;;4398255;32;317281;-75
2024/04/05 11:26:21;;;;;;;3.37;1.25;;;;;;;;;;4407446;32;317180;-75
2024/04/05 11:28:47;;;;;;;17.87;2.15;;;;;;;;;;4384328;32;317043;-76
2024/04/05 11:31:15;;;;;;;5.10;1.30;;;;;;;;;;4392674;32;318213;-75
2024/04/05 11:33:41;;;;;;;1.85;1.37;;;;;;;;;;4382096;32;317325;-76
2024/04/05 11:36:09;;;;;;;3.45;1.35;;;;;;;;;;4391536;32;317550;-75
2024/04/05 11:38:36;;;;;;;2.65;1.25;;;;;;;;;;4381869;32;317201;-75
2024/04/05 11:41:03;;;;;;;2.00;1.23;;;;;;;;;;4387224;32;318179;-75
2024/04/05 11:43:29;;;;;;;15.00;2.15;;;;;;;;;;4392728;32;317074;-76
2024/04/05 11:45:56;;;;;;;4.20;2.00;;;;;;;;;;4406848;32;318486;-76
2024/04/05 11:48:23;;;;;;;3.67;1.00;;;;;;;;;;4408340;32;316860;-75
2024/04/05 11:50:50;;;;;;;7.45;2.20;;;;;;;;;;4391510;32;317231;-75
2024/04/05 11:53:17;;;;;;;2.35;1.40;;;;;;;;;;4409527;32;317087;-75
2024/04/05 11:55:44;;;;;;;10.50;4.53;;;;;;;;;;4400165;32;317524;-76
2024/04/05 11:58:10;;;;;;;5.22;3.08;;;;;;;;;;4410322;32;318549;-75
2024/04/05 12:00:37;;;;;;;2.87;1.08;;;;;;;;;;4400755;32;317386;-75
2024/04/05 12:03:02;;;;;;;4.95;1.42;;;;;;;;;;4405614;32;317121;-75
2024/04/05 12:05:29;;;;;;;13.13;2.22;;;;;;;;;;4399456;32;317095;-78
2024/04/05 12:07:55;;;;;;;15.45;3.42;;;;;;;;;;4407455;32;318272;-76
2024/04/05 12:10:23;;;;;;;4.55;3.15;;;;;;;;;;4402590;32;318139;-76
2024/04/05 12:12:49;;;;;;;5.78;1.87;;;;;;;;;;4388029;32;316913;-76
2024/04/05 12:15:17;;;;;;;3.47;1.30;;;;;;;;;;4407785;32;317244;-75
2024/04/05 12:17:43;;;;;;;1.75;1.00;;;;;;;;;;4399435;32;317006;-77
2024/04/05 12:20:10;;;;;;;14.30;1.75;;;;;;;;;;4409843;32;315517;-75
2024/04/05 12:22:37;;;;;;;5.20;1.45;;;;;;;;;;4390166;32;326546;-76
2024/04/05 12:25:05;;;;;;;5.55;1.55;;;;;;;;;;4405223;32;316543;-75
2024/04/05 12:27:32;;;;;;;1.92;1.17;;;;;;;;;;4389101;32;317436;-77
2024/04/05 12:29:59;;;;;;;4.97;1.98;;;;;;;;;;4408922;32;316562;-76
2024/04/05 12:32:25;;;;;;;3.30;1.00;;;;;;;;;;4399409;32;316605;-77
2024/04/05 12:34:52;;;;;;;2.50;1.37;;;;;;;;;;4409011;32;316467;-77
2024/04/05 12:37:21;;;;;;;4.18;1.40;;;;;;;;;;4398069;32;386643;-76
2024/04/05 12:39:50;;;;;;;3.03;1.27;;;;;;;;;;4403358;32;317137;-76
2024/04/05 12:42:17;;;;;;;4.75;1.30;;;;;;;;;;4404884;32;317495;-77
2024/04/05 12:44:45;;;;;;;7.78;1.23;;;;;;;;;;4410261;32;317145;-76
2024/04/05 12:47:11;;;;;;;2.75;1.45;;;;;;;;;;4408365;32;317323;-76
2024/04/05 12:49:38;;;;;;;4.00;1.55;;;;;;;;;;4392344;32;317063;-76
2024/04/05 12:52:04;;;;;;;8.73;1.65;;;;;;;;;;4408482;32;317451;-76
2024/04/05 12:54:31;;;;;;;1.60;1.00;;;;;;;;;;4399572;32;317370;-76
2024/04/05 12:56:59;;;;;;;4.70;1.17;;;;;;;;;;4409563;32;317144;-76
2024/04/05 12:59:25;;;;;;;3.80;1.25;;;;;;;;;;4399607;32;317486;-76
2024/04/05 13:01:53;;;;;;;5.20;1.17;;;;;;;;;;4402664;32;317208;-76
2024/04/05 13:04:19;;;;;;;2.25;1.30;;;;;;;;;;4398630;32;317234;-76
2024/04/05 13:06:45;;;;;;;9.18;1.50;;;;;;;;;;4407906;32;317092;-76
2024/04/05 13:09:12;;;;;;;3.40;1.20;;;;;;;;;;4408334;32;317452;-76
2024/04/05 13:11:38;;;;;;;2.20;0.88;;;;;;;;;;4382695;32;317216;-76
2024/04/05 13:14:07;;;;;;;5.68;1.35;;;;;;;;;;4392959;32;317266;-76
2024/04/05 13:16:33;;;;;;;1.90;1.17;;;;;;;;;;4384099;32;317222;-76
2024/04/05 13:19:02;;;;;;;3.15;1.17;;;;;;;;;;4404452;32;317106;-76
2024/04/05 13:21:27;;;;;;;4.15;1.50;;;;;;;;;;4396119;32;316571;-76
2024/04/05 13:23:54;;;;;;;4.68;1.33;;;;;;;;;;4401883;32;317042;-76
2024/04/05 13:26:21;;;;;;;5.68;1.45;;;;;;;;;;4381959;32;349651;-76
2024/04/05 13:28:50;;;;;;;4.78;2.05;;;;;;;;;;4408038;32;317174;-76
2024/04/05 13:31:15;;;;;;;1.98;1.35;;;;;;;;;;4408280;32;317781;-76
2024/04/05 13:33:44;;;;;;;1.87;1.00;;;;;;;;;;4390189;32;372757;-76
2024/04/05 13:36:12;;;;;;;5.37;1.83;;;;;;;;;;4403622;32;317177;-76
2024/04/05 13:38:39;;;;;;;2.60;1.40;;;;;;;;;;4383018;32;317340;-76
2024/04/05 13:41:06;;;;;;;2.87;1.30;;;;;;;;;;4407737;32;317136;-77
2024/04/05 13:43:32;;;;;;;6.05;1.25;;;;;;;;;;4379449;32;317101;-75
2024/04/05 13:46:06;;;;;;;3.92;1.60;;;;;;;;;;4392481;32;317107;-75
2024/04/05 13:48:34;;;;;;;3.67;1.37;;;;;;;;;;4384041;32;317184;-75
2024/04/05 13:51:00;;;;;;;1.90;0.85;;;;;;;;;;4406063;32;318085;-78
2024/04/05 13:53:29;;;;;;;3.12;1.05;;;;;;;;;;4398439;32;317206;-76
2024/04/05 13:55:55;;;;;;;4.40;1.70;;;;;;;;;;4408155;32;317052;-77
2024/04/05 13:58:21;;;;;;;3.95;1.30;;;;;;;;;;4398180;32;317082;-76
2024/04/05 14:00:47;;;;;;;3.97;1.37;;;;;;;;;;4406381;32;348062;-76
2024/04/05 14:03:14;;;;;;;5.05;1.48;;;;;;;;;;4407507;32;320788;-76
2024/04/05 14:05:40;;;;;;;2.28;1.00;;;;;;;;;;4390644;32;317242;-76
2024/04/05 14:08:07;;;;;;;4.70;1.90;;;;;;;;;;4405696;32;317275;-76
2024/04/05 14:10:35;;;;;;;2.70;1.33;;;;;;;;;;4398389;32;317285;-76
2024/04/05 14:13:03;;;;;;;2.97;1.25;;;;;;;;;;4408747;32;317167;-76
2024/04/05 14:15:29;;;;;;;3.37;1.30;;;;;;;;;;4383833;32;317370;-75
2024/04/05 14:17:55;;;;;;;5.47;1.17;;;;;;;;;;4394364;32;317098;-75
2024/04/05 14:20:21;;;;;;;2.40;1.10;;;;;;;;;;4395989;32;350162;-75
2024/04/05 14:22:48;;;;;;;7.65;1.27;;;;;;;;;;4407562;32;317168;-75
2024/04/05 14:25:14;;;;;;;4.35;1.50;;;;;;;;;;4408711;32;317364;-75
2024/04/05 14:27:42;;;;;;;4.62;1.40;;;;;;;;;;4392420;32;316983;-75
2024/04/05 14:30:08;;;;;;;2.20;1.00;;;;;;;;;;4407719;32;316844;-75
2024/04/05 14:32:35;;;;;;;2.75;1.50;;;;;;;;;;4398973;32;317147;-76
2024/04/05 14:35:00;;;;;;;2.53;1.10;;;;;;;;;;4408651;32;317231;-77
2024/04/05 14:37:27;;;;;;;3.30;1.08;;;;;;;;;;4397687;32;316984;-75
2024/04/05 14:39:53;;;;;;;6.62;1.20;;;;;;;;;;4405339;32;316617;-75
2024/04/05 14:42:20;;;;;;;4.22;1.30;;;;;;;;;;4394985;32;316967;-75
2024/04/05 14:44:52;;;;;;;2.17;1.20;;;;;;;;;;4390772;32;332231;-77
2024/04/05 14:47:19;;;;;;;1.87;1.00;;;;;;;;;;4380552;32;345205;-75
2024/04/05 14:49:45;;;;;;;8.73;1.45;;;;;;;;;;4395829;32;317451;-75
2024/04/05 14:52:12;;;;;;;3.42;1.50;;;;;;;;;;4406959;32;317235;-76
2024/04/05 14:54:38;;;;;;;5.20;1.30;;;;;;;;;;4398374;32;317514;-75
2024/04/05 14:57:05;;;;;;;2.28;1.10;;;;;;;;;;4408047;32;317021;-75
2024/04/05 14:59:30;;;;;;;2.47;0.93;;;;;;;;;;4390400;32;317210;-75
2024/04/05 15:01:58;;;;;;;1.33;0.80;;;;;;;;;;4407069;32;317108;-77
2024/04/05 15:04:24;;;;;;;6.07;1.30;;;;;;;;;;4396568;32;344133;-76
2024/04/05 15:06:53;;;;;;;4.60;1.23;;;;;;;;;;4402846;32;317332;-74
2024/04/05 15:09:19;;;;;;;6.57;0.93;;;;;;;;;;4383192;32;317621;-75
2024/04/05 15:11:46;;;;;;;2.40;0.77;;;;;;;;;;4386762;32;317477;-76
2024/04/05 15:14:11;;;;;;;3.92;1.25;;;;;;;;;;4392885;32;317220;-76
2024/04/05 15:16:38;;;;;;;2.40;1.00;;;;;;;;;;4396967;32;317470;-74
2024/04/05 15:19:05;;;;;;;4.40;1.23;;;;;;;;;;4408470;32;317088;-76
2024/04/05 15:21:31;;;;;;;2.47;1.23;;;;;;;;;;4391810;32;317036;-76
2024/04/05 15:23:57;;;;;;;18.00;2.53;;;;;;;;;;4404933;32;317046;-75
2024/04/05 15:26:24;;;;;;;2.83;1.25;;;;;;;;;;4396817;32;318310;-76
2024/04/05 15:28:51;;;;;;;3.30;1.23;;;;;;;;;;4404186;32;317302;-77
2024/04/05 15:31:18;;;;;;;3.83;1.12;;;;;;;;;;4385505;32;317215;-76
2024/04/05 15:33:43;;;;;;;6.93;1.17;;;;;;;;;;4389327;32;317172;-74
2024/04/05 15:36:12;;;;;;;4.68;1.33;;;;;;;;;;4394892;32;318143;-74
2024/04/05 15:38:40;;;;;;;15.05;2.17;;;;;;;;;;4384949;32;317313;-76
2024/04/05 15:41:08;;;;;;;5.25;1.50;;;;;;;;;;4401776;32;318300;-76
2024/04/05 15:43:36;;;;;;;2.50;1.17;;;;;;;;;;4382082;32;327014;-76
2024/04/05 15:46:04;;;;;;;3.83;1.42;;;;;;;;;;4396485;32;317297;-76
2024/04/05 15:48:30;;;;;;;5.25;1.25;;;;;;;;;;4386914;32;316504;-76
2024/04/05 15:50:58;;;;;;;7.43;1.45;;;;;;;;;;4395121;32;351241;-76
2024/04/05 15:53:25;;;;;;;7.60;1.42;;;;;;;;;;4385875;32;317105;-75
2024/04/05 15:55:54;;;;;;;13.07;1.60;;;;;;;;;;4397977;32;317033;-75
2024/04/05 15:58:20;;;;;;;5.50;1.10;;;;;;;;;;4403839;32;316920;-75
2024/04/05 16:00:47;;;;;;;3.92;1.50;;;;;;;;;;4415483;32;315090;-75
2024/04/05 16:03:15;;;;;;;6.72;2.30;;;;;;;;;;4414649;32;315226;-76
2024/04/05 16:05:42;;;;;;;10.80;3.22;;;;;;;;;;4396380;32;315642;-76
2024/04/05 16:08:07;;;;;;;5.97;1.62;;;;;;;;;;4411512;32;317020;-76
2024/04/05 16:10:36;;;;;;;7.37;2.05;;;;;;;;;;4395297;32;317092;-76
2024/04/05 16:13:01;;;;;;;3.80;2.20;;;;;;;;;;4395130;32;316516;-76
2024/04/05 16:15:28;;;;;;;8.27;2.50;;;;;;;;;;4390810;32;317105;-76
2024/04/05 16:17:54;;;;;;;9.27;3.78;;;;;;;;;;4409568;32;317234;-76
2024/04/05 16:20:24;;;;;;;16.48;3.90;;;;;;;;;;4401050;32;317144;-76
2024/04/05 16:22:49;;;;;;;4.75;2.55;;;;;;;;;;4409597;32;318219;-76
2024/04/05 16:25:17;;;;;;;7.35;2.67;;;;;;;;;;4409267;32;317269;-75
2024/04/05 16:27:44;;;;;;;7.25;2.37;;;;;;;;;;4390225;32;417902;-76
2024/04/05 16:30:12;;;;;;;7.07;3.65;;;;;;;;;;4410213;32;317251;-76
2024/04/05 16:32:39;;;;;;;14.73;7.72;;;;;;;;;;4400634;32;317011;-76
2024/04/05 16:35:07;;;;;;;17.25;8.35;;;;;;;;;;4414476;32;318273;-75
2024/04/05 16:37:33;;;;;;;14.43;7.90;;;;;;;;;;4399541;32;318312;-75
2024/04/05 16:40:00;;;;;;;20.40;8.10;;;;;;;;;;4417767;32;318046;-75
2024/04/05 16:42:26;;;;;;;20.48;7.43;;;;;;;;;;4397455;32;318461;-75
2024/04/05 16:44:54;;;;;;;19.62;9.35;;;;;;;;;;4400267;32;318305;-74
2024/04/05 16:47:20;;;;;;;35.97;13.55;;;;;;;;;;4396529;32;317891;-76
2024/04/05 16:49:47;;;;;;;22.52;11.70;;;;;;;;;;4401971;32;340793;-75
2024/04/05 16:52:12;;;;;;;25.02;10.70;;;;;;;;;;4409242;32;319279;-75
2024/04/05 16:54:43;;;;;;;20.83;7.80;;;;;;;;;;4398701;32;319591;-76
2024/04/05 16:57:10;;;;;;;11.90;6.87;;;;;;;;;;4408110;32;318603;-77
2024/04/05 16:59:37;;;;;;;12.73;7.25;;;;;;;;;;4391738;32;318378;-77
2024/04/05 17:02:26;;;;;;;15.82;6.45;;;;;;;;;;4408237;32;318321;-76
2024/04/05 17:04:53;;;;;;;12.57;6.25;;;;;;;;;;4395657;32;418820;-75
2024/04/05 17:07:20;;;;;;;17.27;5.18;;;;;;;;;;4399277;32;318165;-74